Time;durP1;ratioP1;P1;durP2;ratioP2;P2;SDS_P1;SDS_P2;PMS_P1;PMS_P2;Temp;Humidity;BMP_temperature;BMP_pressure;BME280_temperature;BME280_humidity;BME280_pressure;Samples;Min_cycle;Max_cycle;Signal;HPM_P1;HPM_P2
2021/06/18 00:00:37;;;;;;;1.25;1.15;;;;;;;19.17;68.64;100225.09;6217618;23;20008;-73
2021/06/18 00:03:03;;;;;;;3.15;1.08;;;;;;;19.12;68.80;100213.38;6199404;23;20035;-74
2021/06/18 00:05:29;;;;;;;1.13;0.68;;;;;;;19.16;68.83;100219.88;6197325;23;20008;-75
2021/06/18 00:07:54;;;;;;;0.82;0.82;;;;;;;19.15;68.16;100218.25;6252115;23;20040;-75
2021/06/18 00:10:23;;;;;;;1.25;1.15;;;;;;;19.19;68.23;100210.91;6246915;23;20000;-75
2021/06/18 00:12:50;;;;;;;0.82;0.82;;;;;;;19.13;68.56;100218.56;6245145;23;20019;-74
2021/06/18 00:15:17;;;;;;;1.05;1.05;;;;;;;19.09;68.37;100227.88;6250700;23;20023;-75
2021/06/18 00:17:42;;;;;;;2.47;1.00;;;;;;;19.09;67.99;100231.47;6244427;22;20024;-75
2021/06/18 00:20:10;;;;;;;1.95;1.27;;;;;;;19.08;67.76;100215.16;6252289;23;20327;-73
2021/06/18 00:22:36;;;;;;;2.22;1.40;;;;;;;19.07;67.78;100227.38;6250751;23;20118;-72
2021/06/18 00:25:04;;;;;;;1.23;1.13;;;;;;;19.07;67.40;100221.84;6246209;23;20054;-72
2021/06/18 00:27:29;;;;;;;1.67;1.55;;;;;;;19.08;67.51;100213.19;6251882;23;20028;-73
2021/06/18 00:29:54;;;;;;;1.30;1.20;;;;;;;19.07;66.96;100213.53;6222738;23;20334;-74
2021/06/18 00:32:20;;;;;;;1.13;1.02;;;;;;;19.02;67.06;100214.50;6248224;23;20011;-72
2021/06/18 00:34:46;;;;;;;1.33;1.23;;;;;;;18.95;67.38;100216.97;6244941;23;20016;-73
2021/06/18 00:37:12;;;;;;;1.55;1.42;;;;;;;18.96;66.90;100208.31;6250992;23;20011;-73
2021/06/18 00:39:37;;;;;;;2.35;1.48;;;;;;;18.96;67.33;100219.41;6248639;23;20091;-73
2021/06/18 00:42:03;;;;;;;1.65;1.15;;;;;;;18.94;67.15;100221.69;6223499;23;20012;-75
2021/06/18 00:44:29;;;;;;;1.75;1.17;;;;;;;18.93;67.09;100219.25;6219883;23;20031;-72
2021/06/18 00:46:55;;;;;;;2.55;1.80;;;;;;;18.93;67.39;100225.59;6249602;23;20000;-74
2021/06/18 00:49:22;;;;;;;1.33;1.23;;;;;;;18.90;66.87;100222.69;6247934;23;20004;-73
2021/06/18 00:51:48;;;;;;;2.05;1.10;;;;;;;18.89;67.20;100221.84;6228387;23;20011;-72
2021/06/18 00:54:27;;;;;;;1.58;1.48;;;;;;;18.83;67.10;100217.59;6249388;23;20012;-72
2021/06/18 00:56:53;;;;;;;1.90;1.77;;;;;;;18.76;67.03;100220.03;6222077;23;20060;-73
2021/06/18 00:59:19;;;;;;;1.88;1.77;;;;;;;18.74;67.79;100216.81;6252804;23;20016;-74
2021/06/18 01:01:44;;;;;;;3.28;1.77;;;;;;;18.67;67.44;100212.56;6224079;23;20038;-74
2021/06/18 01:04:10;;;;;;;1.70;1.60;;;;;;;18.65;67.59;100205.72;6223829;23;20008;-72
2021/06/18 01:06:38;;;;;;;2.13;1.83;;;;;;;18.63;67.89;100206.03;6172750;23;20004;-74
2021/06/18 01:09:06;;;;;;;2.33;2.22;;;;;;;18.54;68.02;100202.44;6248991;23;20019;-74
2021/06/18 01:11:38;;;;;;;2.13;2.03;;;;;;;18.59;67.69;100212.56;6224076;23;20015;-72
2021/06/18 01:14:22;;;;;;;4.25;2.65;;;;;;;18.57;68.05;100201.78;6223987;23;20004;-73
2021/06/18 01:17:06;;;;;;;5.35;2.13;;;;;;;18.59;67.80;100202.28;6247164;22;20116;-74
2021/06/18 01:20:14;;;;;;;1.50;1.40;;;;;;;18.66;67.80;100197.09;6219923;23;20008;-73
2021/06/18 01:22:45;;;;;;;2.65;2.17;;;;;;;18.64;67.65;100191.03;6219501;23;20462;-73
2021/06/18 01:25:46;;;;;;;1.92;1.83;;;;;;;18.63;67.76;100178.34;6213441;23;20486;-74
2021/06/18 01:28:39;;;;;;;2.08;1.98;;;;;;;18.62;67.51;100181.47;6221582;23;20073;-73
2021/06/18 01:31:06;;;;;;;2.20;2.10;;;;;;;18.45;67.51;100171.19;6221226;23;20016;-74
2021/06/18 01:33:35;;;;;;;2.10;2.00;;;;;;;18.48;68.06;100189.91;6197536;23;20008;-76
2021/06/18 01:36:05;;;;;;;2.78;2.10;;;;;;;18.43;67.78;100190.88;6222313;23;20008;-75
2021/06/18 01:38:35;;;;;;;2.55;2.35;;;;;;;18.33;68.14;100190.41;6221362;23;20114;-76
2021/06/18 01:41:05;;;;;;;2.88;2.50;;;;;;;18.25;68.12;100190.06;6223654;23;20043;-77
2021/06/18 01:43:38;;;;;;;3.25;3.00;;;;;;;18.26;68.08;100188.09;6223598;23;20031;-76
2021/06/18 01:46:06;;;;;;;3.05;2.85;;;;;;;18.28;68.42;100181.13;6222739;23;20004;-76
2021/06/18 01:48:34;;;;;;;4.93;2.70;;;;;;;18.17;68.49;100179.78;6219626;23;20015;-75
2021/06/18 01:51:01;;;;;;;3.33;2.80;;;;;;;18.16;68.83;100194.75;6217589;23;20073;-76
2021/06/18 01:53:28;;;;;;;2.13;2.03;;;;;;;18.04;68.64;100172.44;6171244;23;20004;-76
2021/06/18 01:55:56;;;;;;;2.22;2.13;;;;;;;18.06;68.63;100173.75;6220012;23;20095;-76
2021/06/18 01:58:23;;;;;;;2.60;2.50;;;;;;;18.12;68.47;100185.47;6220891;23;20043;-77
2021/06/18 02:00:54;;;;;;;2.67;2.47;;;;;;;18.04;68.46;100166.91;6220544;23;20023;-77
2021/06/18 02:03:24;;;;;;;2.40;2.20;;;;;;;18.16;68.30;100191.97;6221133;23;20035;-77
2021/06/18 02:05:53;;;;;;;4.00;2.55;;;;;;;18.10;68.23;100179.44;6240781;23;20000;-76
2021/06/18 02:08:20;;;;;;;3.58;2.58;;;;;;;18.13;68.03;100192.63;6247468;23;20023;-76
2021/06/18 02:10:49;;;;;;;3.17;3.03;;;;;;;18.11;68.77;100194.91;6193976;23;20388;-76
2021/06/18 02:13:17;;;;;;;2.28;2.17;;;;;;;18.07;68.38;100193.94;6244100;23;20071;-76
2021/06/18 02:15:44;;;;;;;3.03;2.83;;;;;;;18.04;68.79;100178.78;6246952;22;20383;-75
2021/06/18 02:18:12;;;;;;;3.78;3.50;;;;;;;18.01;68.62;100173.09;6194238;23;20772;-74
2021/06/18 02:20:39;;;;;;;3.20;2.63;;;;;;;17.98;69.18;100165.44;6242850;23;20028;-75
2021/06/18 02:23:09;;;;;;;3.88;2.88;;;;;;;17.99;69.05;100169.81;6243362;23;20011;-75
2021/06/18 02:25:37;;;;;;;3.50;3.33;;;;;;;18.01;69.05;100173.09;6245429;23;20003;-73
2021/06/18 02:28:04;;;;;;;9.10;3.60;;;;;;;17.99;69.15;100178.13;6237352;23;20010;-71
2021/06/18 02:30:32;;;;;;;5.85;3.53;;;;;;;17.93;69.05;100161.69;6246663;23;20000;-74
2021/06/18 02:32:59;;;;;;;3.97;2.75;;;;;;;17.83;69.28;100170.25;6219842;23;20008;-73
2021/06/18 02:35:25;;;;;;;5.68;3.53;;;;;;;17.66;69.73;100150.84;6244642;23;20022;-72
2021/06/18 02:37:50;;;;;;;3.20;3.00;;;;;;;17.60;69.54;100164.78;6220659;23;20036;-73
2021/06/18 02:40:16;;;;;;;3.63;3.33;;;;;;;17.50;70.18;100164.28;6219934;23;20070;-74
2021/06/18 02:42:42;;;;;;;6.45;3.53;;;;;;;17.41;70.63;100161.47;6220678;23;20008;-72
2021/06/18 02:45:08;;;;;;;3.20;2.90;;;;;;;17.40;70.54;100166.16;6191853;23;20364;-74
2021/06/18 02:47:52;;;;;;;3.63;3.08;;;;;;;17.38;70.61;100173.19;6191981;23;20119;-71
2021/06/18 02:50:29;;;;;;;3.50;3.20;;;;;;;17.33;70.68;100178.81;6240074;23;20339;-72
2021/06/18 02:53:01;;;;;;;2.58;2.38;;;;;;;17.25;71.24;100177.66;6237941;23;20004;-72
2021/06/18 02:55:33;;;;;;;3.40;3.17;;;;;;;17.27;71.41;100181.75;6241570;23;20103;-73
2021/06/18 02:58:06;;;;;;;3.75;3.45;;;;;;;17.23;71.62;100177.97;6235021;23;20431;-72
2021/06/18 03:00:34;;;;;;;2.55;2.35;;;;;;;17.23;71.34;100183.50;6241340;23;20004;-72
2021/06/18 03:03:03;;;;;;;2.30;2.20;;;;;;;17.24;71.62;100162.19;6215230;23;20035;-73
2021/06/18 03:05:30;;;;;;;2.25;2.15;;;;;;;17.31;71.58;100167.28;6213754;23;20028;-72
2021/06/18 03:08:01;;;;;;;4.00;3.80;;;;;;;17.24;71.66;100170.50;6191721;23;20333;-74
2021/06/18 03:10:33;;;;;;;2.92;2.78;;;;;;;17.27;71.51;100173.44;6246046;23;20011;-73
2021/06/18 03:13:04;;;;;;;3.78;3.03;;;;;;;17.32;71.61;100175.25;6226686;23;20033;-72
2021/06/18 03:15:37;;;;;;;3.17;2.95;;;;;;;17.37;71.69;100177.88;6217503;23;20004;-74
2021/06/18 03:18:04;;;;;;;3.20;2.95;;;;;;;17.32;71.45;100163.38;6248018;23;20015;-73
2021/06/18 03:20:33;;;;;;;3.15;2.95;;;;;;;17.28;71.69;100168.72;6245370;23;20004;-73
2021/06/18 03:23:02;;;;;;;2.95;2.55;;;;;;;17.24;71.38;100176.84;6241930;23;20000;-73
2021/06/18 03:25:29;;;;;;;2.58;2.45;;;;;;;17.19;71.49;100165.91;6244283;23;20000;-73
2021/06/18 03:27:56;;;;;;;3.63;3.33;;;;;;;17.19;71.71;100167.88;6247201;23;20083;-73
2021/06/18 03:30:22;;;;;;;3.08;2.70;;;;;;;17.16;71.69;100177.59;6214731;23;20016;-73
2021/06/18 03:32:49;;;;;;;3.22;2.92;;;;;;;17.18;71.71;100180.84;6242518;23;20004;-72
2021/06/18 03:35:16;;;;;;;2.25;2.15;;;;;;;17.18;71.88;100183.63;6192489;23;20019;-74
2021/06/18 03:37:42;;;;;;;3.05;2.85;;;;;;;17.15;71.90;100175.97;6243326;23;20451;-73
2021/06/18 03:40:09;;;;;;;2.90;2.72;;;;;;;17.22;71.78;100181.88;6192727;23;20117;-72
2021/06/18 03:42:36;;;;;;;2.58;2.47;;;;;;;17.20;71.43;100186.91;6212246;23;20107;-73
2021/06/18 03:45:04;;;;;;;1.88;1.77;;;;;;;17.21;71.90;100185.75;6219692;23;20382;-72
2021/06/18 03:47:33;;;;;;;9.45;2.42;;;;;;;17.26;71.57;100188.41;6245530;23;20010;-73
2021/06/18 03:49:59;;;;;;;1.65;1.55;;;;;;;17.30;71.53;100187.75;6216114;23;20016;-71
2021/06/18 03:52:28;;;;;;;1.80;1.65;;;;;;;17.34;71.25;100194.28;6212407;23;20089;-72
2021/06/18 03:54:54;;;;;;;1.95;1.85;;;;;;;17.32;71.01;100191.84;6189480;23;20007;-73
2021/06/18 03:57:20;;;;;;;3.25;1.80;;;;;;;17.27;70.66;100187.28;6242268;23;20019;-71
2021/06/18 03:59:46;;;;;;;2.65;2.45;;;;;;;17.23;70.33;100194.56;6213332;23;20375;-73
2021/06/18 04:02:14;;;;;;;3.22;1.75;;;;;;;17.13;70.43;100194.81;6213115;23;20008;-73
2021/06/18 04:04:40;;;;;;;2.45;2.35;;;;;;;17.07;70.28;100196.09;6213714;23;20108;-72
2021/06/18 04:07:07;;;;;;;2.35;2.15;;;;;;;16.98;69.97;100186.91;6191225;23;20050;-73
2021/06/18 04:09:33;;;;;;;3.78;2.40;;;;;;;16.89;70.30;100179.41;6189945;23;20016;-70
2021/06/18 04:12:00;;;;;;;1.38;1.35;;;;;;;16.95;70.61;100191.13;6211085;23;20022;-73
2021/06/18 04:14:28;;;;;;;3.60;1.85;;;;;;;16.87;69.97;100192.69;6242351;23;19999;-73
2021/06/18 04:16:54;;;;;;;1.80;1.70;;;;;;;16.84;69.98;100198.81;6245103;22;20082;-73
2021/06/18 04:19:20;;;;;;;2.13;1.90;;;;;;;16.79;70.48;100200.88;6244336;23;20008;-71
2021/06/18 04:21:46;;;;;;;3.28;1.45;;;;;;;16.76;70.41;100202.31;6244928;23;20079;-72
2021/06/18 04:24:15;;;;;;;1.70;1.60;;;;;;;16.78;70.53;100189.03;6191693;23;20012;-72
2021/06/18 04:26:42;;;;;;;1.58;1.58;;;;;;;16.83;70.26;100202.69;6215422;23;20055;-71
2021/06/18 04:29:08;;;;;;;2.55;2.05;;;;;;;16.82;70.16;100195.56;6234111;23;20008;-71
2021/06/18 04:31:34;;;;;;;2.60;1.65;;;;;;;16.79;70.17;100201.69;6217332;23;20338;-72
2021/06/18 04:33:59;;;;;;;1.73;1.63;;;;;;;16.79;70.29;100207.22;6188386;23;20047;-72
2021/06/18 04:36:25;;;;;;;4.85;2.00;;;;;;;16.72;70.06;100198.56;6237188;23;20015;-73
2021/06/18 04:38:50;;;;;;;2.25;2.15;;;;;;;16.66;70.14;100213.59;6217792;23;20431;-73
2021/06/18 04:41:17;;;;;;;2.00;1.80;;;;;;;16.61;70.31;100208.22;6233774;23;20004;-72
2021/06/18 04:43:42;;;;;;;3.35;1.75;;;;;;;16.66;70.32;100210.84;6191084;23;20343;-72
2021/06/18 04:46:07;;;;;;;1.50;1.40;;;;;;;16.68;70.36;100214.94;6218943;23;20008;-70
2021/06/18 04:48:34;;;;;;;3.67;1.30;;;;;;;16.67;70.38;100209.72;6245805;23;20379;-71
2021/06/18 04:51:00;;;;;;;2.10;1.27;;;;;;;16.62;70.23;100207.06;6235937;23;20008;-73
2021/06/18 04:53:26;;;;;;;1.80;1.70;;;;;;;16.63;70.05;100211.47;6188488;23;20038;-72
2021/06/18 04:55:52;;;;;;;2.30;2.10;;;;;;;16.58;70.16;100209.66;6215665;23;20095;-70
2021/06/18 04:58:19;;;;;;;2.35;1.80;;;;;;;16.51;70.12;100212.81;6192688;23;20077;-72
2021/06/18 05:00:44;;;;;;;2.80;2.40;;;;;;;16.46;70.21;100221.25;6218832;23;20004;-71
2021/06/18 05:03:10;;;;;;;1.60;1.50;;;;;;;16.41;70.21;100207.53;6245036;23;20079;-75
2021/06/18 05:05:36;;;;;;;1.67;1.30;;;;;;;16.49;70.63;100209.56;6188308;23;20004;-73
2021/06/18 05:08:01;;;;;;;1.10;1.10;;;;;;;16.51;70.22;100214.78;6217483;23;20411;-72
2021/06/18 05:10:27;;;;;;;4.32;1.40;;;;;;;16.50;70.35;100219.50;6218560;23;20012;-73
2021/06/18 05:12:55;;;;;;;1.80;1.70;;;;;;;16.47;69.94;100220.13;6167463;23;20016;-72
2021/06/18 05:15:21;;;;;;;3.17;1.10;;;;;;;16.46;70.38;100221.25;6194091;23;20020;-72
2021/06/18 05:17:47;;;;;;;1.42;1.33;;;;;;;16.49;70.13;100225.34;6193032;23;20051;-72
2021/06/18 05:20:13;;;;;;;1.00;0.90;;;;;;;16.44;70.14;100226.28;6214576;23;20415;-72
2021/06/18 05:22:39;;;;;;;0.98;0.98;;;;;;;16.46;70.12;100224.00;6213641;23;20008;-69
2021/06/18 05:25:06;;;;;;;1.17;1.10;;;;;;;16.50;69.91;100226.94;6243955;23;20451;-71
2021/06/18 05:27:31;;;;;;;1.98;1.40;;;;;;;16.48;69.82;100218.97;6238431;23;19996;-71
2021/06/18 05:29:57;;;;;;;0.80;0.80;;;;;;;16.49;70.01;100214.28;6209075;23;20011;-72
2021/06/18 05:32:22;;;;;;;1.60;1.50;;;;;;;16.45;69.94;100218.78;6237406;23;20079;-72
2021/06/18 05:34:48;;;;;;;1.00;1.00;;;;;;;16.43;70.10;100210.81;6193292;23;20016;-74
2021/06/18 05:37:14;;;;;;;2.70;1.17;;;;;;;16.41;70.07;100202.03;6164382;23;20063;-73
2021/06/18 05:39:42;;;;;;;3.15;1.02;;;;;;;16.47;70.12;100205.50;6192944;23;20419;-73
2021/06/18 05:42:08;;;;;;;1.40;1.30;;;;;;;16.44;70.13;100201.44;6212241;23;20335;-70
2021/06/18 05:44:34;;;;;;;1.00;1.00;;;;;;;16.42;70.07;100209.19;6190152;23;20091;-72
2021/06/18 05:46:59;;;;;;;1.90;1.00;;;;;;;16.41;70.29;100196.50;6207763;23;20087;-71
2021/06/18 05:49:25;;;;;;;1.25;1.25;;;;;;;16.51;70.25;100198.22;6191758;23;20012;-70
2021/06/18 05:51:50;;;;;;;1.48;1.38;;;;;;;16.61;70.06;100194.41;6241831;23;20008;-70
2021/06/18 05:54:15;;;;;;;3.65;1.40;;;;;;;16.64;69.38;100193.78;6215246;23;20012;-70
2021/06/18 05:56:41;;;;;;;1.15;1.10;;;;;;;16.66;69.27;100194.28;6235687;23;20015;-70
2021/06/18 05:59:06;;;;;;;0.70;0.70;;;;;;;16.67;69.14;100204.22;6215042;23;20035;-70
2021/06/18 06:01:32;;;;;;;1.38;1.35;;;;;;;16.74;69.55;100197.09;6216495;23;20008;-72
2021/06/18 06:03:59;;;;;;;2.45;1.20;;;;;;;16.73;69.25;100191.91;6242741;23;20016;-71
2021/06/18 06:06:26;;;;;;;1.35;1.25;;;;;;;16.93;69.62;100191.44;6215908;23;20339;-69
2021/06/18 06:08:53;;;;;;;1.05;1.05;;;;;;;17.12;68.66;100189.63;6242199;23;19999;-70
2021/06/18 06:11:19;;;;;;;1.60;1.50;;;;;;;17.19;68.27;100188.03;6193047;23;20099;-71
2021/06/18 06:13:45;;;;;;;1.10;1.10;;;;;;;17.25;67.74;100192.28;6242927;23;20028;-71
2021/06/18 06:16:10;;;;;;;1.00;1.00;;;;;;;17.28;68.10;100177.81;6218391;23;20086;-73
2021/06/18 06:18:37;;;;;;;0.88;0.88;;;;;;;17.30;67.66;100182.22;6244399;23;20020;-70
2021/06/18 06:21:03;;;;;;;1.13;1.08;;;;;;;17.24;67.86;100181.53;6245411;23;20049;-72
2021/06/18 06:23:29;;;;;;;0.90;0.90;;;;;;;17.13;67.73;100183.78;6244520;23;20086;-71
2021/06/18 06:25:54;;;;;;;0.80;0.80;;;;;;;17.05;68.05;100195.56;6242972;23;20000;-72
2021/06/18 06:28:20;;;;;;;0.98;0.98;;;;;;;16.93;68.22;100182.34;6215547;23;20010;-70
2021/06/18 06:30:45;;;;;;;0.60;0.60;;;;;;;16.85;68.13;100188.56;6213737;23;20018;-71
2021/06/18 06:33:11;;;;;;;0.73;0.73;;;;;;;16.73;68.45;100191.91;6217092;23;20012;-71
2021/06/18 06:35:36;;;;;;;0.90;0.90;;;;;;;16.65;69.12;100189.91;6214690;23;20012;-70
2021/06/18 06:38:01;;;;;;;0.80;0.80;;;;;;;16.62;68.97;100185.00;6216662;23;20343;-71
2021/06/18 06:40:27;;;;;;;1.95;0.93;;;;;;;16.58;69.05;100190.34;6242281;23;20565;-71
2021/06/18 06:42:53;;;;;;;0.82;0.80;;;;;;;16.56;69.08;100190.66;6243960;23;20008;-71
2021/06/18 06:45:18;;;;;;;0.88;0.88;;;;;;;16.55;69.08;100197.28;6241752;23;20063;-69
2021/06/18 06:47:50;;;;;;;1.80;0.82;;;;;;;16.49;69.06;100204.06;6247165;23;20004;-75
2021/06/18 06:50:16;;;;;;;0.80;0.80;;;;;;;16.39;69.88;100188.53;6221493;23;20015;-75
2021/06/18 06:52:41;;;;;;;0.70;0.70;;;;;;;16.33;69.67;100188.97;6222153;23;20339;-75
2021/06/18 06:55:07;;;;;;;2.53;0.90;;;;;;;16.26;70.10;100189.41;6197808;23;20008;-77
2021/06/18 06:57:33;;;;;;;1.98;0.85;;;;;;;16.23;70.60;100190.81;6198089;23;20015;-76
2021/06/18 07:00:10;;;;;;;0.80;0.80;;;;;;;16.07;70.63;100172.97;6220360;23;20370;-78
2021/06/18 07:02:35;;;;;;;0.80;0.80;;;;;;;16.03;70.88;100174.72;6198742;23;20008;-79
2021/06/18 07:05:36;;;;;;;1.50;0.70;;;;;;;16.02;70.85;100178.63;6221547;23;20091;-77
2021/06/18 07:08:23;;;;;;;5.10;0.85;;;;;;;15.93;71.29;100188.72;6248880;23;20016;-75
2021/06/18 07:10:49;;;;;;;3.35;0.73;;;;;;;15.80;71.47;100171.06;6188559;23;20020;-76
2021/06/18 07:13:15;;;;;;;1.75;1.00;;;;;;;15.80;71.77;100177.41;6218732;23;20014;-74
2021/06/18 07:15:48;;;;;;;1.67;0.75;;;;;;;15.78;72.14;100179.66;6222314;23;20008;-76
2021/06/18 07:18:21;;;;;;;1.27;0.80;;;;;;;15.77;72.13;100172.50;6194473;23;20024;-76
2021/06/18 07:20:50;;;;;;;0.90;0.73;;;;;;;15.70;72.24;100167.38;6192611;23;20027;-75
2021/06/18 07:23:51;;;;;;;4.03;1.33;;;;;;;15.74;72.71;100173.09;6193587;23;20016;-74
2021/06/18 07:30:00;;;;;;;0.60;0.60;;;;;;;15.51;72.88;100147.38;6202118;23;20004;-74
2021/06/18 07:32:28;;;;;;;0.93;0.73;;;;;;;15.61;72.77;100174.72;6186867;23;20008;-78
2021/06/18 07:34:53;;;;;;;0.80;0.80;;;;;;;15.58;73.30;100172.59;6222569;23;20004;-78
2021/06/18 07:37:26;;;;;;;1.15;1.05;;;;;;;15.56;73.32;100174.00;6223107;23;20011;-79
2021/06/18 07:39:54;;;;;;;2.33;0.80;;;;;;;15.56;73.08;100171.25;6199615;23;20043;-78
2021/06/18 07:42:24;;;;;;;1.25;1.13;;;;;;;15.45;73.38;100156.84;6196088;23;20020;-79
2021/06/18 07:44:49;;;;;;;0.93;0.93;;;;;;;15.42;73.43;100150.03;6224070;23;20104;-80
2021/06/18 07:47:28;;;;;;;;;;;;;;;;;;;;;
2021/06/18 07:49:54;;;;;;;0.70;0.70;;;;;;;15.52;73.98;100166.38;6216010;23;20378;-77
2021/06/18 07:52:19;;;;;;;2.35;0.80;;;;;;;15.53;73.79;100154.19;6215409;23;20001;-79
2021/06/18 07:55:16;;;;;;;0.70;0.60;;;;;;;15.48;73.77;100140.53;6192153;23;20004;-77
2021/06/18 07:57:42;;;;;;;0.77;0.77;;;;;;;15.62;73.55;100161.75;6214803;23;20080;-78
2021/06/18 08:00:11;;;;;;;1.05;0.73;;;;;;;15.61;73.69;100163.72;6217537;23;20124;-76
2021/06/18 08:02:36;;;;;;;4.85;0.70;;;;;;;15.54;73.53;100153.09;6184093;23;20019;-79
2021/06/18 08:05:03;;;;;;;1.13;1.05;;;;;;;15.58;74.03;100164.31;6193353;23;20008;-76
2021/06/18 08:07:29;;;;;;;2.42;1.10;;;;;;;15.57;73.56;100161.88;6217055;23;20013;-76
2021/06/18 08:09:54;;;;;;;0.80;0.80;;;;;;;15.58;73.84;100163.50;6187973;23;20020;-77
2021/06/18 08:12:22;;;;;;;3.00;0.80;;;;;;;15.54;73.78;100164.09;6218126;23;20950;-78
2021/06/18 08:14:48;;;;;;;4.70;0.95;;;;;;;15.57;73.97;100161.88;6215957;23;20004;-80
2021/06/18 08:17:14;;;;;;;0.70;0.70;;;;;;;15.51;73.95;100147.38;6196357;23;20024;-77
2021/06/18 08:19:40;;;;;;;2.55;0.95;;;;;;;15.56;74.16;100147.25;6196485;23;20004;-78
2021/06/18 08:22:05;;;;;;;0.85;0.85;;;;;;;15.62;74.14;100161.75;6190691;23;20442;-77
2021/06/18 08:24:32;;;;;;;1.38;0.50;;;;;;;15.64;73.75;100162.28;6214985;23;20607;-78
2021/06/18 08:26:58;;;;;;;0.82;0.52;;;;;;;15.58;73.95;100141.44;6206435;23;20705;-76
2021/06/18 08:29:23;;;;;;;0.63;0.63;;;;;;;15.71;73.82;100159.91;6188320;23;20095;-75
2021/06/18 08:32:13;;;;;;;1.55;0.60;;;;;;;15.78;73.91;100156.75;6217530;23;20004;-76
2021/06/18 08:34:56;;;;;;;1.73;0.80;;;;;;;15.76;73.76;100151.56;6190543;23;20458;-77
2021/06/18 08:37:21;;;;;;;0.68;0.45;;;;;;;15.81;73.52;100154.25;6194637;23;20000;-76
2021/06/18 08:39:47;;;;;;;1.30;0.80;;;;;;;15.82;73.82;100155.06;6193630;23;20062;-77
2021/06/18 08:42:12;;;;;;;0.50;0.50;;;;;;;15.77;73.73;100149.59;6194452;23;20018;-77
2021/06/18 08:44:38;;;;;;;0.50;0.50;;;;;;;15.78;73.97;100149.31;6192985;23;20008;-77
2021/06/18 08:47:21;;;;;;;;;;;;;;;;;;;;;
2021/06/18 08:49:51;;;;;;;0.50;0.40;;;;;;;15.83;73.57;100143.72;6221784;23;20028;-78
2021/06/18 08:52:17;;;;;;;0.50;0.50;;;;;;;15.89;73.60;100147.19;6197365;23;20000;-77
2021/06/18 08:54:44;;;;;;;0.30;0.30;;;;;;;15.91;73.65;100149.63;6194112;23;20008;-78
2021/06/18 08:57:16;;;;;;;0.75;0.40;;;;;;;15.91;73.56;100130.31;6196141;23;20043;-79
2021/06/18 09:04:38;;;;;;;0.30;0.30;;;;;;;15.96;73.68;100139.31;6019873;23;20018;-78
2021/06/18 09:07:49;;;;;;;0.60;0.28;;;;;;;15.99;73.76;100140.59;6175245;23;20036;-79
2021/06/18 09:13:49;;;;;;;;;;;;;;;;;;;;;
2021/06/18 09:16:34;;;;;;;;;;;;;;;;;;;;;
2021/06/18 09:36:34;;;;;;;3.75;0.40;;;;;;;15.79;73.86;100104.09;6119611;23;20017;-78
2021/06/18 09:39:52;;;;;;;0.40;0.40;;;;;;;16.04;74.20;100132.25;6107252;23;20013;-77
2021/06/18 09:45:27;;;;;;;3.17;0.50;;;;;;;16.20;73.67;100130.75;6152141;23;20017;-79
2021/06/18 09:49:09;;;;;;;0.50;0.50;;;;;;;16.25;73.52;100131.78;6226521;23;20012;-80
2021/06/18 09:52:23;;;;;;;;;;;;;;;;;;;;;
2021/06/18 09:54:58;;;;;;;0.20;0.20;;;;;;;16.45;73.69;100125.78;6246892;23;20035;-80
2021/06/18 09:57:40;;;;;;;0.20;0.20;;;;;;;16.57;73.48;100123.28;6236274;23;20004;-78
2021/06/18 10:00:11;;;;;;;0.32;0.20;;;;;;;16.56;73.00;100118.06;6228515;23;20004;-79
2021/06/18 10:02:43;;;;;;;0.30;0.20;;;;;;;16.64;73.02;100122.81;6199825;23;20031;-79
2021/06/18 10:05:16;;;;;;;0.40;0.20;;;;;;;16.70;72.69;100129.03;6226354;23;20010;-82
2021/06/18 10:07:44;;;;;;;0.10;0.10;;;;;;;16.68;72.41;100114.75;6226593;23;20493;-80
2021/06/18 10:10:17;;;;;;;1.10;0.20;;;;;;;16.73;72.19;100125.66;6223950;23;20050;-80
2021/06/18 10:12:43;;;;;;;0.32;0.28;;;;;;;16.78;72.48;100121.94;6201546;23;20308;-79
2021/06/18 10:15:20;;;;;;;0.60;0.20;;;;;;;16.75;72.27;100113.16;6252552;23;20099;-77
2021/06/18 10:17:48;;;;;;;0.17;0.10;;;;;;;16.75;71.77;100115.13;6248045;23;20012;-78
2021/06/18 10:20:22;;;;;;;0.10;0.10;;;;;;;16.76;72.01;100113.97;6226858;23;20014;-78
2021/06/18 10:22:53;;;;;;;0.40;0.30;;;;;;;16.82;72.26;100121.00;6248377;23;20043;-78
2021/06/18 10:25:33;;;;;;;3.45;0.17;;;;;;;16.83;71.94;100117.09;6252767;23;20046;-74
2021/06/18 10:28:05;;;;;;;0.10;0.10;;;;;;;16.86;72.12;100126.69;6251697;23;20008;-77
2021/06/18 10:30:44;;;;;;;0.20;0.20;;;;;;;16.92;71.92;100126.31;6246895;23;20003;-76
2021/06/18 10:33:34;;;;;;;0.25;0.20;;;;;;;16.91;71.79;100121.09;6250990;23;20000;-78
2021/06/18 10:36:06;;;;;;;0.10;0.10;;;;;;;16.84;72.08;100129.78;6226943;23;20123;-77
2021/06/18 10:38:36;;;;;;;0.10;0.10;;;;;;;16.78;71.81;100122.75;6245542;23;20031;-78
2021/06/18 10:41:25;;;;;;;0.40;0.20;;;;;;;16.79;72.02;100135.41;6225608;23;20096;-78
2021/06/18 10:43:56;;;;;;;0.00;0.00;;;;;;;16.71;72.07;100122.41;6253662;23;20008;-78
2021/06/18 10:46:25;;;;;;;0.20;0.10;;;;;;;16.72;72.01;100129.56;6218510;23;20000;-79
2021/06/18 10:48:50;;;;;;;1.83;0.10;;;;;;;16.66;72.26;100125.28;6252151;23;21035;-79
2021/06/18 10:51:32;;;;;;;0.10;0.00;;;;;;;16.65;72.22;100129.97;6225749;23;20019;-76
2021/06/18 10:54:05;;;;;;;0.03;0.03;;;;;;;16.62;72.19;100132.53;6253575;23;20008;-78
2021/06/18 10:56:46;;;;;;;0.13;0.00;;;;;;;16.66;71.82;100126.09;6226675;23;20000;-78
2021/06/18 11:02:35;;;;;;;0.15;0.10;;;;;;;16.66;71.96;100120.56;6260510;23;20391;-77
2021/06/18 11:05:01;;;;;;;0.08;0.00;;;;;;;16.78;72.18;100125.53;6224910;23;20098;-75
2021/06/18 11:07:40;;;;;;;0.10;0.10;;;;;;;16.83;71.88;100114.34;6249001;23;20099;-77
2021/06/18 11:10:07;;;;;;;0.00;0.00;;;;;;;16.92;71.35;100123.53;6224038;23;20585;-76
2021/06/18 11:12:37;;;;;;;0.00;0.00;;;;;;;17.04;71.54;100113.81;6253212;23;20406;-77
2021/06/18 11:15:27;;;;;;;0.30;0.20;;;;;;;17.13;71.02;100116.63;6252134;22;20004;-77
2021/06/18 11:18:13;;;;;;;0.10;0.10;;;;;;;17.22;70.54;100112.78;6213516;23;20028;-76
2021/06/18 11:20:38;;;;;;;1.17;0.10;;;;;;;17.22;70.54;100114.75;6251786;23;20063;-77
2021/06/18 11:23:17;;;;;;;0.15;0.10;;;;;;;17.20;70.36;100105.94;6225925;23;20015;-78
2021/06/18 11:26:23;;;;;;;0.10;0.10;;;;;;;17.06;70.55;100100.53;6252367;23;20474;-77
2021/06/18 11:28:51;;;;;;;;;;;;;;;17.13;70.03;100103.66;6190922;23;20019;-77
2021/06/18 11:31:21;;;;;;;0.10;0.10;;;;;;;16.86;69.70;100086.09;6253765;23;19948;-77
2021/06/18 11:33:51;;;;;;;0.20;0.10;;;;;;;16.85;69.49;100090.00;6228803;23;20015;-76
2021/06/18 11:36:17;;;;;;;0.10;0.10;;;;;;;16.87;69.40;100101.56;6253726;23;20027;-78
2021/06/18 11:38:45;;;;;;;0.25;0.20;;;;;;;16.86;69.68;100094.38;6226480;23;20062;-77
2021/06/18 11:41:17;;;;;;;0.10;0.10;;;;;;;16.87;69.45;100104.31;6197088;23;20038;-76
2021/06/18 11:43:42;;;;;;;0.35;0.28;;;;;;;16.89;69.53;100096.56;6201820;23;20059;-76
2021/06/18 11:46:09;;;;;;;1.02;0.15;;;;;;;16.84;69.39;100088.34;6195790;23;20016;-76
2021/06/18 11:48:42;;;;;;;0.35;0.30;;;;;;;16.91;69.71;100099.81;6225012;23;20004;-77
2021/06/18 11:51:20;;;;;;;0.40;0.20;;;;;;;16.91;69.71;100088.75;6225376;23;20011;-77
2021/06/18 11:53:46;;;;;;;0.10;0.10;;;;;;;16.95;69.74;100099.16;6251456;23;20120;-74
2021/06/18 11:56:12;;;;;;;3.65;0.17;;;;;;;16.89;69.45;100088.28;6198081;23;20008;-74
2021/06/18 11:58:43;;;;;;;4.90;0.30;;;;;;;16.96;70.06;100095.28;6221898;23;20012;-76
2021/06/18 12:01:13;;;;;;;0.20;0.20;;;;;;;17.04;70.04;100091.72;6246099;23;20007;-76
2021/06/18 12:03:39;;;;;;;0.10;0.10;;;;;;;17.09;69.92;100099.91;6224091;23;20004;-77
2021/06/18 12:06:15;;;;;;;0.10;0.10;;;;;;;17.17;70.17;100101.06;6226747;23;20012;-76
2021/06/18 12:08:56;;;;;;;0.15;0.10;;;;;;;17.20;69.81;100104.00;6224391;23;20010;-76
2021/06/18 12:11:21;;;;;;;0.10;0.10;;;;;;;17.17;69.43;100107.41;6252165;23;20007;-75
2021/06/18 12:13:55;;;;;;;0.10;0.10;;;;;;;17.16;69.63;100105.78;6222404;23;20012;-76
2021/06/18 12:16:28;;;;;;;0.20;0.10;;;;;;;17.13;69.82;100117.47;6224625;23;20008;-75
2021/06/18 12:18:55;;;;;;;0.20;0.08;;;;;;;17.11;69.91;100114.19;6198096;23;20007;-76
2021/06/18 12:21:25;;;;;;;0.03;0.03;;;;;;;17.10;69.52;100118.09;6253197;23;20004;-77